sensor_id;sensor_type;location;lat;lon;timestamp;P1;durP1;ratioP1;P2;durP2;ratioP2
56381;SDS011;50261;51.150;4.470;2023-11-22T00:00:56;14.18;;;10.38;;
56381;SDS011;50261;51.150;4.470;2023-11-22T00:03:22;15.32;;;10.90;;
56381;SDS011;50261;51.150;4.470;2023-11-22T00:05:49;18.40;;;10.63;;
56381;SDS011;50261;51.150;4.470;2023-11-22T00:08:15;15.10;;;9.98;;
56381;SDS011;50261;51.150;4.470;2023-11-22T00:10:41;15.75;;;10.32;;
56381;SDS011;50261;51.150;4.470;2023-11-22T00:13:07;16.98;;;10.38;;
56381;SDS011;50261;51.150;4.470;2023-11-22T00:15:32;20.20;;;10.95;;
56381;SDS011;50261;51.150;4.470;2023-11-22T00:17:58;16.58;;;10.80;;
56381;SDS011;50261;51.150;4.470;2023-11-22T00:20:28;18.85;;;10.77;;
56381;SDS011;50261;51.150;4.470;2023-11-22T00:22:53;16.23;;;10.77;;
56381;SDS011;50261;51.150;4.470;2023-11-22T00:25:19;17.40;;;10.70;;
56381;SDS011;50261;51.150;4.470;2023-11-22T00:27:45;19.45;;;10.90;;
56381;SDS011;50261;51.150;4.470;2023-11-22T00:30:12;16.08;;;10.32;;
56381;SDS011;50261;51.150;4.470;2023-11-22T00:32:38;16.10;;;10.45;;
56381;SDS011;50261;51.150;4.470;2023-11-22T00:35:06;17.02;;;10.80;;
56381;SDS011;50261;51.150;4.470;2023-11-22T00:37:33;14.82;;;10.10;;
56381;SDS011;50261;51.150;4.470;2023-11-22T00:40:01;15.27;;;10.48;;
56381;SDS011;50261;51.150;4.470;2023-11-22T00:42:36;15.52;;;9.63;;
56381;SDS011;50261;51.150;4.470;2023-11-22T00:45:03;14.68;;;10.13;;
56381;SDS011;50261;51.150;4.470;2023-11-22T00:47:31;19.35;;;11.60;;
56381;SDS011;50261;51.150;4.470;2023-11-22T00:49:57;15.77;;;10.63;;
56381;SDS011;50261;51.150;4.470;2023-11-22T00:52:22;15.48;;;10.38;;
56381;SDS011;50261;51.150;4.470;2023-11-22T00:54:48;14.98;;;10.05;;
56381;SDS011;50261;51.150;4.470;2023-11-22T00:57:15;16.63;;;10.65;;
56381;SDS011;50261;51.150;4.470;2023-11-22T00:59:41;16.40;;;10.32;;
56381;SDS011;50261;51.150;4.470;2023-11-22T01:02:06;16.75;;;10.13;;
56381;SDS011;50261;51.150;4.470;2023-11-22T01:04:34;15.18;;;9.90;;
56381;SDS011;50261;51.150;4.470;2023-11-22T01:07:02;13.80;;;10.00;;
56381;SDS011;50261;51.150;4.470;2023-11-22T01:09:29;18.17;;;10.77;;
56381;SDS011;50261;51.150;4.470;2023-11-22T01:11:55;14.20;;;9.70;;
56381;SDS011;50261;51.150;4.470;2023-11-22T01:14:21;16.63;;;9.88;;
56381;SDS011;50261;51.150;4.470;2023-11-22T01:16:47;15.93;;;10.15;;
56381;SDS011;50261;51.150;4.470;2023-11-22T01:19:15;15.65;;;10.15;;
56381;SDS011;50261;51.150;4.470;2023-11-22T01:21:40;14.23;;;9.90;;
56381;SDS011;50261;51.150;4.470;2023-11-22T01:24:06;16.00;;;10.00;;
56381;SDS011;50261;51.150;4.470;2023-11-22T01:26:32;15.32;;;10.55;;
56381;SDS011;50261;51.150;4.470;2023-11-22T01:28:57;14.35;;;10.00;;
56381;SDS011;50261;51.150;4.470;2023-11-22T01:31:25;15.55;;;10.65;;
56381;SDS011;50261;51.150;4.470;2023-11-22T01:33:52;17.35;;;10.70;;
56381;SDS011;50261;51.150;4.470;2023-11-22T01:36:19;15.93;;;10.15;;
56381;SDS011;50261;51.150;4.470;2023-11-22T01:38:44;15.13;;;10.32;;
56381;SDS011;50261;51.150;4.470;2023-11-22T01:41:12;16.75;;;10.43;;
56381;SDS011;50261;51.150;4.470;2023-11-22T01:43:39;16.42;;;10.90;;
56381;SDS011;50261;51.150;4.470;2023-11-22T01:46:08;17.10;;;10.35;;
56381;SDS011;50261;51.150;4.470;2023-11-22T01:48:34;15.73;;;10.20;;
56381;SDS011;50261;51.150;4.470;2023-11-22T01:51:03;16.15;;;10.57;;
56381;SDS011;50261;51.150;4.470;2023-11-22T01:53:29;15.25;;;9.38;;
56381;SDS011;50261;51.150;4.470;2023-11-22T01:55:56;12.15;;;9.43;;
56381;SDS011;50261;51.150;4.470;2023-11-22T01:58:22;14.40;;;9.68;;
56381;SDS011;50261;51.150;4.470;2023-11-22T02:00:50;14.52;;;10.45;;
56381;SDS011;50261;51.150;4.470;2023-11-22T02:03:16;14.20;;;10.18;;
56381;SDS011;50261;51.150;4.470;2023-11-22T02:05:42;15.10;;;10.38;;
56381;SDS011;50261;51.150;4.470;2023-11-22T02:08:09;15.20;;;9.90;;
56381;SDS011;50261;51.150;4.470;2023-11-22T02:10:34;16.63;;;10.13;;
56381;SDS011;50261;51.150;4.470;2023-11-22T02:13:02;15.18;;;9.68;;
56381;SDS011;50261;51.150;4.470;2023-11-22T02:15:30;14.93;;;10.23;;
56381;SDS011;50261;51.150;4.470;2023-11-22T02:17:56;15.80;;;10.45;;
56381;SDS011;50261;51.150;4.470;2023-11-22T02:20:22;15.27;;;9.45;;
56381;SDS011;50261;51.150;4.470;2023-11-22T02:22:48;14.70;;;10.07;;
56381;SDS011;50261;51.150;4.470;2023-11-22T02:25:14;17.38;;;11.05;;
56381;SDS011;50261;51.150;4.470;2023-11-22T02:27:42;14.85;;;9.68;;
56381;SDS011;50261;51.150;4.470;2023-11-22T02:30:08;16.30;;;10.15;;
56381;SDS011;50261;51.150;4.470;2023-11-22T02:32:34;14.30;;;9.43;;
56381;SDS011;50261;51.150;4.470;2023-11-22T02:35:00;13.95;;;9.23;;
56381;SDS011;50261;51.150;4.470;2023-11-22T02:37:26;13.68;;;9.65;;
56381;SDS011;50261;51.150;4.470;2023-11-22T02:39:56;14.98;;;9.93;;
56381;SDS011;50261;51.150;4.470;2023-11-22T02:42:24;15.85;;;10.55;;
56381;SDS011;50261;51.150;4.470;2023-11-22T02:44:49;17.40;;;9.20;;
56381;SDS011;50261;51.150;4.470;2023-11-22T02:47:15;14.23;;;9.68;;
56381;SDS011;50261;51.150;4.470;2023-11-22T02:49:41;15.43;;;9.77;;
56381;SDS011;50261;51.150;4.470;2023-11-22T02:52:06;14.45;;;9.75;;
56381;SDS011;50261;51.150;4.470;2023-11-22T02:54:32;14.60;;;9.98;;
56381;SDS011;50261;51.150;4.470;2023-11-22T02:56:58;14.60;;;9.68;;
56381;SDS011;50261;51.150;4.470;2023-11-22T02:59:23;14.32;;;10.00;;
56381;SDS011;50261;51.150;4.470;2023-11-22T03:01:50;17.13;;;10.45;;
56381;SDS011;50261;51.150;4.470;2023-11-22T03:04:16;15.65;;;9.52;;
56381;SDS011;50261;51.150;4.470;2023-11-22T03:06:42;14.30;;;10.05;;
56381;SDS011;50261;51.150;4.470;2023-11-22T03:09:07;16.52;;;10.35;;
56381;SDS011;50261;51.150;4.470;2023-11-22T03:11:34;16.95;;;9.77;;
56381;SDS011;50261;51.150;4.470;2023-11-22T03:14:00;17.65;;;10.63;;
56381;SDS011;50261;51.150;4.470;2023-11-22T03:16:29;16.92;;;10.65;;
56381;SDS011;50261;51.150;4.470;2023-11-22T03:18:55;15.38;;;10.13;;
56381;SDS011;50261;51.150;4.470;2023-11-22T03:21:23;14.57;;;9.50;;
56381;SDS011;50261;51.150;4.470;2023-11-22T03:23:51;14.60;;;10.52;;
56381;SDS011;50261;51.150;4.470;2023-11-22T03:26:17;18.10;;;10.32;;
56381;SDS011;50261;51.150;4.470;2023-11-22T03:28:42;16.67;;;9.85;;
56381;SDS011;50261;51.150;4.470;2023-11-22T03:31:09;18.30;;;9.65;;
56381;SDS011;50261;51.150;4.470;2023-11-22T03:33:35;13.55;;;9.27;;
56381;SDS011;50261;51.150;4.470;2023-11-22T03:36:01;16.52;;;10.10;;
56381;SDS011;50261;51.150;4.470;2023-11-22T03:38:27;14.95;;;10.32;;
56381;SDS011;50261;51.150;4.470;2023-11-22T03:40:52;16.13;;;10.27;;
56381;SDS011;50261;51.150;4.470;2023-11-22T03:43:18;14.77;;;10.63;;
56381;SDS011;50261;51.150;4.470;2023-11-22T03:45:44;14.77;;;9.15;;
56381;SDS011;50261;51.150;4.470;2023-11-22T03:48:10;18.10;;;10.43;;
56381;SDS011;50261;51.150;4.470;2023-11-22T03:50:36;17.73;;;10.95;;
56381;SDS011;50261;51.150;4.470;2023-11-22T03:53:02;17.45;;;10.63;;
56381;SDS011;50261;51.150;4.470;2023-11-22T03:55:28;15.73;;;10.40;;
56381;SDS011;50261;51.150;4.470;2023-11-22T03:57:53;17.95;;;10.65;;
56381;SDS011;50261;51.150;4.470;2023-11-22T04:00:19;13.77;;;10.20;;
56381;SDS011;50261;51.150;4.470;2023-11-22T04:02:45;16.23;;;10.25;;
56381;SDS011;50261;51.150;4.470;2023-11-22T04:05:10;17.67;;;10.73;;
56381;SDS011;50261;51.150;4.470;2023-11-22T04:07:37;17.25;;;10.25;;
56381;SDS011;50261;51.150;4.470;2023-11-22T04:10:04;14.38;;;9.70;;
56381;SDS011;50261;51.150;4.470;2023-11-22T04:12:31;16.80;;;10.27;;
56381;SDS011;50261;51.150;4.470;2023-11-22T04:14:57;15.65;;;10.77;;
56381;SDS011;50261;51.150;4.470;2023-11-22T04:17:23;19.58;;;11.13;;
56381;SDS011;50261;51.150;4.470;2023-11-22T04:19:49;15.07;;;10.40;;
56381;SDS011;50261;51.150;4.470;2023-11-22T04:22:14;15.27;;;10.15;;
56381;SDS011;50261;51.150;4.470;2023-11-22T04:24:40;18.60;;;10.77;;
56381;SDS011;50261;51.150;4.470;2023-11-22T04:27:06;15.80;;;10.60;;
56381;SDS011;50261;51.150;4.470;2023-11-22T04:29:32;15.02;;;9.70;;
56381;SDS011;50261;51.150;4.470;2023-11-22T04:31:58;17.58;;;10.98;;
56381;SDS011;50261;51.150;4.470;2023-11-22T04:34:23;16.13;;;10.50;;
56381;SDS011;50261;51.150;4.470;2023-11-22T04:36:49;15.32;;;9.95;;
56381;SDS011;50261;51.150;4.470;2023-11-22T04:39:15;18.58;;;10.82;;
56381;SDS011;50261;51.150;4.470;2023-11-22T04:41:41;18.83;;;10.77;;
56381;SDS011;50261;51.150;4.470;2023-11-22T04:44:06;15.02;;;10.05;;
56381;SDS011;50261;51.150;4.470;2023-11-22T04:46:32;18.35;;;11.55;;
56381;SDS011;50261;51.150;4.470;2023-11-22T04:48:58;15.30;;;10.70;;
56381;SDS011;50261;51.150;4.470;2023-11-22T04:51:24;16.60;;;10.52;;
56381;SDS011;50261;51.150;4.470;2023-11-22T04:53:50;19.25;;;10.70;;
56381;SDS011;50261;51.150;4.470;2023-11-22T04:56:15;15.70;;;10.80;;
56381;SDS011;50261;51.150;4.470;2023-11-22T04:58:41;16.48;;;10.80;;
56381;SDS011;50261;51.150;4.470;2023-11-22T05:01:07;15.35;;;10.52;;
56381;SDS011;50261;51.150;4.470;2023-11-22T05:03:36;15.20;;;10.38;;
56381;SDS011;50261;51.150;4.470;2023-11-22T05:06:02;16.85;;;11.40;;
56381;SDS011;50261;51.150;4.470;2023-11-22T05:08:28;17.20;;;10.60;;
56381;SDS011;50261;51.150;4.470;2023-11-22T05:10:54;18.67;;;10.85;;
56381;SDS011;50261;51.150;4.470;2023-11-22T05:13:20;18.33;;;11.82;;
56381;SDS011;50261;51.150;4.470;2023-11-22T05:15:45;17.33;;;11.07;;
56381;SDS011;50261;51.150;4.470;2023-11-22T05:18:12;16.67;;;10.57;;
56381;SDS011;50261;51.150;4.470;2023-11-22T05:20:38;20.15;;;11.85;;
56381;SDS011;50261;51.150;4.470;2023-11-22T05:23:03;18.40;;;11.18;;
56381;SDS011;50261;51.150;4.470;2023-11-22T05:25:29;17.17;;;11.27;;
56381;SDS011;50261;51.150;4.470;2023-11-22T05:27:55;19.40;;;10.95;;
56381;SDS011;50261;51.150;4.470;2023-11-22T05:30:21;18.00;;;11.80;;
56381;SDS011;50261;51.150;4.470;2023-11-22T05:32:48;15.82;;;10.80;;
56381;SDS011;50261;51.150;4.470;2023-11-22T05:35:14;17.08;;;11.18;;
56381;SDS011;50261;51.150;4.470;2023-11-22T05:37:39;14.73;;;10.52;;
56381;SDS011;50261;51.150;4.470;2023-11-22T05:40:06;17.65;;;10.93;;
56381;SDS011;50261;51.150;4.470;2023-11-22T05:42:34;18.83;;;11.35;;
56381;SDS011;50261;51.150;4.470;2023-11-22T05:45:00;15.55;;;10.38;;
56381;SDS011;50261;51.150;4.470;2023-11-22T05:47:25;17.27;;;11.43;;
56381;SDS011;50261;51.150;4.470;2023-11-22T05:49:51;17.80;;;11.43;;
56381;SDS011;50261;51.150;4.470;2023-11-22T05:52:17;15.65;;;10.65;;
56381;SDS011;50261;51.150;4.470;2023-11-22T05:54:44;15.95;;;10.38;;
56381;SDS011;50261;51.150;4.470;2023-11-22T05:57:10;17.23;;;10.82;;
56381;SDS011;50261;51.150;4.470;2023-11-22T05:59:36;18.75;;;11.57;;
56381;SDS011;50261;51.150;4.470;2023-11-22T06:02:01;17.85;;;10.65;;
56381;SDS011;50261;51.150;4.470;2023-11-22T06:04:27;15.98;;;10.70;;
56381;SDS011;50261;51.150;4.470;2023-11-22T06:06:53;18.05;;;10.80;;
56381;SDS011;50261;51.150;4.470;2023-11-22T06:09:18;17.70;;;10.90;;
56381;SDS011;50261;51.150;4.470;2023-11-22T06:11:44;17.40;;;11.18;;
56381;SDS011;50261;51.150;4.470;2023-11-22T06:14:10;15.65;;;11.45;;
56381;SDS011;50261;51.150;4.470;2023-11-22T06:16:35;20.90;;;11.38;;
56381;SDS011;50261;51.150;4.470;2023-11-22T06:19:01;15.65;;;10.85;;
56381;SDS011;50261;51.150;4.470;2023-11-22T06:21:27;19.17;;;10.68;;
56381;SDS011;50261;51.150;4.470;2023-11-22T06:23:53;18.30;;;12.10;;
56381;SDS011;50261;51.150;4.470;2023-11-22T06:26:20;17.13;;;11.05;;
56381;SDS011;50261;51.150;4.470;2023-11-22T06:28:46;19.25;;;11.45;;
56381;SDS011;50261;51.150;4.470;2023-11-22T06:31:14;18.55;;;12.23;;
56381;SDS011;50261;51.150;4.470;2023-11-22T06:33:40;16.60;;;10.95;;
56381;SDS011;50261;51.150;4.470;2023-11-22T06:36:06;17.25;;;10.70;;
56381;SDS011;50261;51.150;4.470;2023-11-22T06:38:32;18.95;;;10.98;;
56381;SDS011;50261;51.150;4.470;2023-11-22T06:40:58;17.98;;;11.27;;
56381;SDS011;50261;51.150;4.470;2023-11-22T06:43:23;18.15;;;10.98;;
56381;SDS011;50261;51.150;4.470;2023-11-22T06:45:49;18.88;;;11.43;;
56381;SDS011;50261;51.150;4.470;2023-11-22T06:48:16;19.90;;;11.43;;
56381;SDS011;50261;51.150;4.470;2023-11-22T06:50:42;17.13;;;11.43;;
56381;SDS011;50261;51.150;4.470;2023-11-22T06:53:08;14.88;;;10.05;;
56381;SDS011;50261;51.150;4.470;2023-11-22T06:55:33;15.93;;;11.32;;
56381;SDS011;50261;51.150;4.470;2023-11-22T06:57:59;18.83;;;11.07;;
56381;SDS011;50261;51.150;4.470;2023-11-22T07:00:24;18.60;;;11.10;;
56381;SDS011;50261;51.150;4.470;2023-11-22T07:02:52;16.63;;;11.55;;
56381;SDS011;50261;51.150;4.470;2023-11-22T07:05:18;16.40;;;11.43;;
56381;SDS011;50261;51.150;4.470;2023-11-22T07:07:44;18.63;;;11.82;;
56381;SDS011;50261;51.150;4.470;2023-11-22T07:10:10;20.98;;;11.98;;
56381;SDS011;50261;51.150;4.470;2023-11-22T07:12:36;18.10;;;12.30;;
56381;SDS011;50261;51.150;4.470;2023-11-22T07:15:02;20.77;;;12.23;;
56381;SDS011;50261;51.150;4.470;2023-11-22T07:17:28;22.23;;;13.25;;
56381;SDS011;50261;51.150;4.470;2023-11-22T07:19:54;24.77;;;14.43;;
56381;SDS011;50261;51.150;4.470;2023-11-22T07:22:20;25.10;;;14.80;;
56381;SDS011;50261;51.150;4.470;2023-11-22T07:24:47;26.92;;;15.38;;
56381;SDS011;50261;51.150;4.470;2023-11-22T07:27:13;28.92;;;15.73;;
56381;SDS011;50261;51.150;4.470;2023-11-22T07:29:42;27.73;;;14.82;;
56381;SDS011;50261;51.150;4.470;2023-11-22T07:32:08;26.17;;;15.75;;
56381;SDS011;50261;51.150;4.470;2023-11-22T07:34:36;27.98;;;15.15;;
56381;SDS011;50261;51.150;4.470;2023-11-22T07:37:02;25.63;;;15.20;;
56381;SDS011;50261;51.150;4.470;2023-11-22T07:39:28;30.05;;;15.43;;
56381;SDS011;50261;51.150;4.470;2023-11-22T07:41:53;28.42;;;14.85;;
56381;SDS011;50261;51.150;4.470;2023-11-22T07:44:22;22.40;;;14.02;;
56381;SDS011;50261;51.150;4.470;2023-11-22T07:46:49;24.85;;;15.18;;
56381;SDS011;50261;51.150;4.470;2023-11-22T07:49:14;24.88;;;13.60;;
56381;SDS011;50261;51.150;4.470;2023-11-22T07:51:40;19.33;;;11.88;;
56381;SDS011;50261;51.150;4.470;2023-11-22T07:54:06;23.73;;;12.57;;
56381;SDS011;50261;51.150;4.470;2023-11-22T07:56:32;27.85;;;13.65;;
56381;SDS011;50261;51.150;4.470;2023-11-22T07:58:58;20.95;;;13.35;;
56381;SDS011;50261;51.150;4.470;2023-11-22T08:01:23;23.35;;;13.02;;
56381;SDS011;50261;51.150;4.470;2023-11-22T08:03:53;25.58;;;13.15;;
56381;SDS011;50261;51.150;4.470;2023-11-22T08:06:18;22.02;;;13.35;;
56381;SDS011;50261;51.150;4.470;2023-11-22T08:08:43;24.10;;;13.35;;
56381;SDS011;50261;51.150;4.470;2023-11-22T08:11:11;26.48;;;13.75;;
56381;SDS011;50261;51.150;4.470;2023-11-22T08:13:40;24.20;;;13.60;;
56381;SDS011;50261;51.150;4.470;2023-11-22T08:16:06;24.42;;;13.18;;
56381;SDS011;50261;51.150;4.470;2023-11-22T08:18:31;26.65;;;13.98;;
56381;SDS011;50261;51.150;4.470;2023-11-22T08:20:56;21.83;;;13.13;;
56381;SDS011;50261;51.150;4.470;2023-11-22T08:23:22;21.45;;;13.50;;
56381;SDS011;50261;51.150;4.470;2023-11-22T08:25:47;19.80;;;12.27;;
56381;SDS011;50261;51.150;4.470;2023-11-22T08:28:13;27.23;;;13.13;;
56381;SDS011;50261;51.150;4.470;2023-11-22T08:30:39;18.52;;;11.93;;
56381;SDS011;50261;51.150;4.470;2023-11-22T08:33:06;19.75;;;12.48;;
56381;SDS011;50261;51.150;4.470;2023-11-22T08:35:32;22.17;;;12.88;;
56381;SDS011;50261;51.150;4.470;2023-11-22T08:37:57;25.92;;;12.38;;
56381;SDS011;50261;51.150;4.470;2023-11-22T08:40:23;21.73;;;13.00;;
56381;SDS011;50261;51.150;4.470;2023-11-22T08:42:49;23.73;;;13.20;;
56381;SDS011;50261;51.150;4.470;2023-11-22T08:45:14;25.00;;;13.23;;
56381;SDS011;50261;51.150;4.470;2023-11-22T08:47:40;22.80;;;13.40;;
56381;SDS011;50261;51.150;4.470;2023-11-22T08:50:09;30.08;;;13.30;;
56381;SDS011;50261;51.150;4.470;2023-11-22T08:52:38;22.15;;;13.95;;
56381;SDS011;50261;51.150;4.470;2023-11-22T08:55:04;38.25;;;13.20;;
56381;SDS011;50261;51.150;4.470;2023-11-22T08:57:30;31.67;;;14.02;;
56381;SDS011;50261;51.150;4.470;2023-11-22T08:59:56;21.60;;;13.80;;
56381;SDS011;50261;51.150;4.470;2023-11-22T09:02:21;30.67;;;14.57;;
56381;SDS011;50261;51.150;4.470;2023-11-22T09:04:48;23.25;;;13.68;;
56381;SDS011;50261;51.150;4.470;2023-11-22T09:07:13;34.75;;;15.65;;
56381;SDS011;50261;51.150;4.470;2023-11-22T09:09:40;29.63;;;14.27;;
56381;SDS011;50261;51.150;4.470;2023-11-22T09:12:07;23.17;;;14.38;;
56381;SDS011;50261;51.150;4.470;2023-11-22T09:14:40;37.33;;;15.52;;
56381;SDS011;50261;51.150;4.470;2023-11-22T09:17:07;42.65;;;15.18;;
56381;SDS011;50261;51.150;4.470;2023-11-22T09:19:32;48.92;;;14.88;;
56381;SDS011;50261;51.150;4.470;2023-11-22T09:21:58;44.15;;;15.35;;
56381;SDS011;50261;51.150;4.470;2023-11-22T09:24:25;48.42;;;14.00;;
56381;SDS011;50261;51.150;4.470;2023-11-22T09:26:50;26.92;;;14.75;;
56381;SDS011;50261;51.150;4.470;2023-11-22T09:29:15;24.15;;;14.80;;
56381;SDS011;50261;51.150;4.470;2023-11-22T09:31:41;25.55;;;14.07;;
56381;SDS011;50261;51.150;4.470;2023-11-22T09:34:13;24.80;;;14.52;;
56381;SDS011;50261;51.150;4.470;2023-11-22T09:36:38;22.48;;;12.88;;
56381;SDS011;50261;51.150;4.470;2023-11-22T09:39:04;20.92;;;12.23;;
56381;SDS011;50261;51.150;4.470;2023-11-22T09:41:33;30.42;;;12.27;;
56381;SDS011;50261;51.150;4.470;2023-11-22T09:43:59;28.77;;;13.32;;
56381;SDS011;50261;51.150;4.470;2023-11-22T09:46:25;47.03;;;14.52;;
56381;SDS011;50261;51.150;4.470;2023-11-22T09:48:52;37.72;;;14.18;;
56381;SDS011;50261;51.150;4.470;2023-11-22T09:51:23;31.15;;;14.40;;
56381;SDS011;50261;51.150;4.470;2023-11-22T09:56:14;31.60;;;14.18;;
56381;SDS011;50261;51.150;4.470;2023-11-22T09:58:41;29.45;;;15.82;;
56381;SDS011;50261;51.150;4.470;2023-11-22T10:01:12;22.50;;;13.25;;
56381;SDS011;50261;51.150;4.470;2023-11-22T10:03:40;23.77;;;13.75;;
56381;SDS011;50261;51.150;4.470;2023-11-22T10:06:06;22.60;;;13.57;;
56381;SDS011;50261;51.150;4.470;2023-11-22T10:08:31;24.20;;;13.05;;
56381;SDS011;50261;51.150;4.470;2023-11-22T10:10:57;27.38;;;13.38;;
56381;SDS011;50261;51.150;4.470;2023-11-22T10:13:23;24.83;;;14.80;;
56381;SDS011;50261;51.150;4.470;2023-11-22T10:15:48;24.17;;;14.02;;
56381;SDS011;50261;51.150;4.470;2023-11-22T10:18:14;28.63;;;15.40;;
56381;SDS011;50261;51.150;4.470;2023-11-22T10:20:40;28.30;;;15.65;;
56381;SDS011;50261;51.150;4.470;2023-11-22T10:23:09;27.45;;;15.77;;
56381;SDS011;50261;51.150;4.470;2023-11-22T10:25:44;38.38;;;14.90;;
56381;SDS011;50261;51.150;4.470;2023-11-22T10:28:12;29.33;;;15.63;;
56381;SDS011;50261;51.150;4.470;2023-11-22T10:30:38;31.88;;;16.38;;
56381;SDS011;50261;51.150;4.470;2023-11-22T10:33:05;30.45;;;16.40;;
56381;SDS011;50261;51.150;4.470;2023-11-22T10:35:31;37.22;;;17.35;;
56381;SDS011;50261;51.150;4.470;2023-11-22T10:37:56;28.95;;;16.13;;
56381;SDS011;50261;51.150;4.470;2023-11-22T10:40:22;25.73;;;14.85;;
56381;SDS011;50261;51.150;4.470;2023-11-22T10:42:47;26.73;;;15.10;;
56381;SDS011;50261;51.150;4.470;2023-11-22T10:45:14;24.10;;;14.40;;
56381;SDS011;50261;51.150;4.470;2023-11-22T10:47:40;26.23;;;14.85;;
56381;SDS011;50261;51.150;4.470;2023-11-22T10:50:08;28.58;;;16.30;;
56381;SDS011;50261;51.150;4.470;2023-11-22T10:52:34;27.33;;;14.88;;
56381;SDS011;50261;51.150;4.470;2023-11-22T10:55:04;24.60;;;14.93;;
56381;SDS011;50261;51.150;4.470;2023-11-22T10:57:33;24.02;;;13.52;;
56381;SDS011;50261;51.150;4.470;2023-11-22T11:00:03;21.52;;;13.30;;
56381;SDS011;50261;51.150;4.470;2023-11-22T11:02:31;25.02;;;13.52;;
56381;SDS011;50261;51.150;4.470;2023-11-22T11:04:59;27.02;;;14.07;;
56381;SDS011;50261;51.150;4.470;2023-11-22T11:07:29;22.33;;;13.95;;
56381;SDS011;50261;51.150;4.470;2023-11-22T11:09:55;26.98;;;14.93;;
56381;SDS011;50261;51.150;4.470;2023-11-22T11:12:22;24.75;;;14.18;;
56381;SDS011;50261;51.150;4.470;2023-11-22T11:14:48;24.48;;;15.57;;
56381;SDS011;50261;51.150;4.470;2023-11-22T11:17:14;25.55;;;15.50;;
56381;SDS011;50261;51.150;4.470;2023-11-22T11:19:40;24.45;;;14.60;;
56381;SDS011;50261;51.150;4.470;2023-11-22T11:22:07;23.55;;;13.75;;
56381;SDS011;50261;51.150;4.470;2023-11-22T11:24:41;20.52;;;12.52;;
56381;SDS011;50261;51.150;4.470;2023-11-22T11:29:35;27.47;;;13.77;;
56381;SDS011;50261;51.150;4.470;2023-11-22T11:32:09;26.70;;;15.05;;
56381;SDS011;50261;51.150;4.470;2023-11-22T11:34:48;28.98;;;14.45;;
56381;SDS011;50261;51.150;4.470;2023-11-22T11:37:14;22.08;;;12.55;;
56381;SDS011;50261;51.150;4.470;2023-11-22T11:39:40;23.40;;;13.65;;
56381;SDS011;50261;51.150;4.470;2023-11-22T11:42:09;21.35;;;12.88;;
56381;SDS011;50261;51.150;4.470;2023-11-22T11:44:35;22.80;;;13.55;;
56381;SDS011;50261;51.150;4.470;2023-11-22T11:47:08;24.30;;;13.73;;
56381;SDS011;50261;51.150;4.470;2023-11-22T11:49:34;22.42;;;12.93;;
56381;SDS011;50261;51.150;4.470;2023-11-22T11:52:01;22.13;;;13.23;;
56381;SDS011;50261;51.150;4.470;2023-11-22T11:54:28;22.45;;;13.20;;
56381;SDS011;50261;51.150;4.470;2023-11-22T11:56:58;25.13;;;14.23;;
56381;SDS011;50261;51.150;4.470;2023-11-22T11:59:24;24.42;;;14.05;;
56381;SDS011;50261;51.150;4.470;2023-11-22T12:01:52;24.33;;;12.93;;
56381;SDS011;50261;51.150;4.470;2023-11-22T12:04:18;25.58;;;13.40;;
56381;SDS011;50261;51.150;4.470;2023-11-22T12:06:43;25.67;;;13.55;;
56381;SDS011;50261;51.150;4.470;2023-11-22T12:09:09;24.90;;;13.95;;
56381;SDS011;50261;51.150;4.470;2023-11-22T12:11:34;25.33;;;14.05;;
56381;SDS011;50261;51.150;4.470;2023-11-22T12:13:59;24.48;;;14.73;;
56381;SDS011;50261;51.150;4.470;2023-11-22T12:16:25;24.45;;;14.48;;
56381;SDS011;50261;51.150;4.470;2023-11-22T12:18:52;23.08;;;13.98;;
56381;SDS011;50261;51.150;4.470;2023-11-22T12:21:17;22.92;;;13.77;;
56381;SDS011;50261;51.150;4.470;2023-11-22T12:23:43;27.45;;;14.73;;
56381;SDS011;50261;51.150;4.470;2023-11-22T12:26:17;24.15;;;14.35;;
56381;SDS011;50261;51.150;4.470;2023-11-22T12:28:45;25.88;;;15.10;;
56381;SDS011;50261;51.150;4.470;2023-11-22T12:31:11;28.35;;;16.13;;
56381;SDS011;50261;51.150;4.470;2023-11-22T12:33:37;28.80;;;15.98;;
56381;SDS011;50261;51.150;4.470;2023-11-22T12:36:06;26.10;;;13.98;;
56381;SDS011;50261;51.150;4.470;2023-11-22T12:38:31;24.73;;;15.32;;
56381;SDS011;50261;51.150;4.470;2023-11-22T12:40:57;28.85;;;16.05;;
56381;SDS011;50261;51.150;4.470;2023-11-22T12:43:23;24.70;;;15.27;;
56381;SDS011;50261;51.150;4.470;2023-11-22T12:46:02;29.90;;;15.75;;
56381;SDS011;50261;51.150;4.470;2023-11-22T12:48:27;28.60;;;15.27;;
56381;SDS011;50261;51.150;4.470;2023-11-22T12:50:55;28.95;;;16.88;;
56381;SDS011;50261;51.150;4.470;2023-11-22T12:53:21;30.80;;;18.88;;
56381;SDS011;50261;51.150;4.470;2023-11-22T12:55:47;32.30;;;18.48;;
56381;SDS011;50261;51.150;4.470;2023-11-22T12:58:14;34.20;;;19.67;;
56381;SDS011;50261;51.150;4.470;2023-11-22T13:00:40;33.47;;;18.65;;
56381;SDS011;50261;51.150;4.470;2023-11-22T13:03:06;35.22;;;18.80;;
56381;SDS011;50261;51.150;4.470;2023-11-22T13:05:32;30.40;;;18.02;;
56381;SDS011;50261;51.150;4.470;2023-11-22T13:07:57;29.35;;;17.25;;
56381;SDS011;50261;51.150;4.470;2023-11-22T13:10:22;25.65;;;15.70;;
56381;SDS011;50261;51.150;4.470;2023-11-22T13:12:52;26.15;;;15.98;;
56381;SDS011;50261;51.150;4.470;2023-11-22T13:15:17;30.13;;;16.38;;
56381;SDS011;50261;51.150;4.470;2023-11-22T13:17:42;25.70;;;16.05;;
56381;SDS011;50261;51.150;4.470;2023-11-22T13:20:08;24.60;;;14.73;;
56381;SDS011;50261;51.150;4.470;2023-11-22T13:22:43;26.30;;;15.85;;
56381;SDS011;50261;51.150;4.470;2023-11-22T13:25:10;23.73;;;14.68;;
56381;SDS011;50261;51.150;4.470;2023-11-22T13:27:36;28.25;;;16.42;;
56381;SDS011;50261;51.150;4.470;2023-11-22T13:30:02;26.27;;;15.00;;
56381;SDS011;50261;51.150;4.470;2023-11-22T13:32:29;25.85;;;15.70;;
56381;SDS011;50261;51.150;4.470;2023-11-22T13:34:55;26.15;;;16.10;;
56381;SDS011;50261;51.150;4.470;2023-11-22T13:37:22;26.00;;;15.07;;
56381;SDS011;50261;51.150;4.470;2023-11-22T13:39:48;27.92;;;15.70;;
56381;SDS011;50261;51.150;4.470;2023-11-22T13:42:13;27.60;;;15.73;;
56381;SDS011;50261;51.150;4.470;2023-11-22T13:44:39;27.35;;;16.05;;
56381;SDS011;50261;51.150;4.470;2023-11-22T13:47:06;28.45;;;16.65;;
56381;SDS011;50261;51.150;4.470;2023-11-22T13:49:36;26.90;;;17.33;;
56381;SDS011;50261;51.150;4.470;2023-11-22T13:52:02;28.77;;;17.23;;
56381;SDS011;50261;51.150;4.470;2023-11-22T13:54:28;27.42;;;17.42;;
56381;SDS011;50261;51.150;4.470;2023-11-22T13:56:53;30.25;;;17.95;;
56381;SDS011;50261;51.150;4.470;2023-11-22T13:59:18;27.65;;;16.00;;
56381;SDS011;50261;51.150;4.470;2023-11-22T14:01:44;25.98;;;15.13;;
56381;SDS011;50261;51.150;4.470;2023-11-22T14:04:10;27.90;;;13.98;;
56381;SDS011;50261;51.150;4.470;2023-11-22T14:06:36;25.63;;;15.27;;
56381;SDS011;50261;51.150;4.470;2023-11-22T14:09:01;24.35;;;14.32;;
56381;SDS011;50261;51.150;4.470;2023-11-22T14:11:26;27.60;;;14.95;;
56381;SDS011;50261;51.150;4.470;2023-11-22T14:13:52;25.23;;;15.57;;
56381;SDS011;50261;51.150;4.470;2023-11-22T14:16:17;24.90;;;14.82;;
56381;SDS011;50261;51.150;4.470;2023-11-22T14:18:44;28.42;;;15.77;;
56381;SDS011;50261;51.150;4.470;2023-11-22T14:21:10;23.85;;;13.93;;
56381;SDS011;50261;51.150;4.470;2023-11-22T14:23:35;24.08;;;14.63;;